ZKDAY ZLLL-ZLXN
Flight info
| Callsign | ZKDAY |
|---|---|
| Flight time | 0h 54m |
| Altitude | 8500 |
| Route | VFR |
| Aircraft | C172/L-SGO/C |
Departure
| Time | 2026-05-06 20:42 |
|---|---|
| Airport | Lanzhou Zhongchuan International Airport (ZLLL) |
Arrival
| Time | 2026-05-06 21:36 |
|---|---|
| Airport | Xining Caojiabao International Airport (ZLXN) |
| Time | Latitude | Longitude | Altitude | Speed | Heading |
|---|---|---|---|---|---|
| 2026-05-06 20:28 | 36.51016 | 103.61756 | 6359 ft | 0 kts | 88° |
| 2026-05-06 20:32 | 36.51011 | 103.61794 | 6357 ft | 10 kts | 129° |
| 2026-05-06 20:33 | 36.50947 | 103.61807 | 6356 ft | 9 kts | 175° |
| 2026-05-06 20:33 | 36.50886 | 103.61811 | 6356 ft | 8 kts | 178° |
| 2026-05-06 20:33 | 36.50825 | 103.61815 | 6358 ft | 10 kts | 178° |
| 2026-05-06 20:33 | 36.50736 | 103.61821 | 6358 ft | 15 kts | 175° |
| 2026-05-06 20:34 | 36.50645 | 103.61879 | 6355 ft | 17 kts | 112° |
| 2026-05-06 20:34 | 36.50544 | 103.61936 | 6356 ft | 16 kts | 176° |
| 2026-05-06 20:34 | 36.50472 | 103.61937 | 6359 ft | 15 kts | 183° |
| 2026-05-06 20:34 | 36.50377 | 103.61959 | 6360 ft | 13 kts | 170° |
| 2026-05-06 20:35 | 36.50295 | 103.61951 | 6360 ft | 10 kts | 186° |
| 2026-05-06 20:35 | 36.50244 | 103.61950 | 6360 ft | 4 kts | 173° |
| 2026-05-06 20:35 | 36.50221 | 103.61955 | 6357 ft | 9 kts | 171° |
| 2026-05-06 20:35 | 36.50130 | 103.61958 | 6359 ft | 13 kts | 191° |
| 2026-05-06 20:36 | 36.50059 | 103.61958 | 6359 ft | 8 kts | 173° |
| 2026-05-06 20:36 | 36.50026 | 103.61964 | 6359 ft | 0 kts | 170° |
| 2026-05-06 20:36 | 36.50007 | 103.61967 | 6358 ft | 7 kts | 175° |
| 2026-05-06 20:36 | 36.49927 | 103.61986 | 6359 ft | 14 kts | 148° |
| 2026-05-06 20:37 | 36.49899 | 103.62047 | 6356 ft | 4 kts | 94° |
| 2026-05-06 20:37 | 36.49899 | 103.62051 | 6359 ft | 0 kts | 84° |
| 2026-05-06 20:39 | 36.49922 | 103.62139 | 6360 ft | 19 kts | 66° |
| 2026-05-06 20:39 | 36.50002 | 103.62176 | 6356 ft | 9 kts | 356° |
| 2026-05-06 20:39 | 36.50010 | 103.62176 | 6360 ft | 0 kts | 359° |
| 2026-05-06 20:40 | 36.50013 | 103.62176 | 6360 ft | 5 kts | 354° |
| 2026-05-06 20:40 | 36.50184 | 103.62165 | 6360 ft | 44 kts | 356° |
| 2026-05-06 20:40 | 36.50606 | 103.62139 | 6364 ft | 75 kts | 357° |
| 2026-05-06 20:41 | 36.51153 | 103.62112 | 6482 ft | 80 kts | 358° |
| 2026-05-06 20:41 | 36.51730 | 103.62072 | 6601 ft | 85 kts | 353° |
| 2026-05-06 20:41 | 36.52323 | 103.61982 | 6715 ft | 90 kts | 352° |
| 2026-05-06 20:41 | 36.52950 | 103.61857 | 6830 ft | 92 kts | 345° |
| 2026-05-06 20:42 | 36.53199 | 103.61181 | 6875 ft | 101 kts | 255° |
| 2026-05-06 20:42 | 36.52986 | 103.60381 | 7088 ft | 93 kts | 250° |
| 2026-05-06 20:42 | 36.52673 | 103.59696 | 7195 ft | 98 kts | 214° |
| 2026-05-06 20:42 | 36.51963 | 103.59499 | 7202 ft | 111 kts | 179° |
| 2026-05-06 20:43 | 36.51183 | 103.59531 | 7275 ft | 114 kts | 180° |
| 2026-05-06 20:43 | 36.50496 | 103.59145 | 7395 ft | 112 kts | 229° |
| 2026-05-06 20:43 | 36.50196 | 103.58251 | 7420 ft | 117 kts | 257° |
| 2026-05-06 20:43 | 36.50021 | 103.57239 | 7415 ft | 122 kts | 260° |
| 2026-05-06 20:44 | 36.49850 | 103.56231 | 7446 ft | 114 kts | 255° |
| 2026-05-06 20:44 | 36.49670 | 103.55259 | 7323 ft | 122 kts | 256° |
| 2026-05-06 20:44 | 36.49461 | 103.54231 | 7279 ft | 120 kts | 256° |
| 2026-05-06 20:44 | 36.49292 | 103.53252 | 7306 ft | 114 kts | 261° |
| 2026-05-06 20:45 | 36.49167 | 103.52288 | 7351 ft | 110 kts | 261° |
| 2026-05-06 20:45 | 36.49021 | 103.51364 | 7453 ft | 108 kts | 257° |
| 2026-05-06 20:45 | 36.48784 | 103.50451 | 7473 ft | 114 kts | 252° |
| 2026-05-06 20:45 | 36.48536 | 103.49547 | 7595 ft | 109 kts | 251° |
| 2026-05-06 20:46 | 36.48299 | 103.48648 | 7650 ft | 111 kts | 251° |
| 2026-05-06 20:46 | 36.47975 | 103.47770 | 7694 ft | 113 kts | 248° |
| 2026-05-06 20:46 | 36.47671 | 103.46879 | 7782 ft | 113 kts | 245° |
| 2026-05-06 20:46 | 36.47334 | 103.45991 | 7847 ft | 113 kts | 247° |
| 2026-05-06 20:47 | 36.46981 | 103.45086 | 7855 ft | 118 kts | 243° |
| 2026-05-06 20:47 | 36.46602 | 103.44181 | 7832 ft | 123 kts | 243° |
| 2026-05-06 20:47 | 36.46183 | 103.43240 | 7807 ft | 124 kts | 240° |
| 2026-05-06 20:47 | 36.45740 | 103.42267 | 7556 ft | 137 kts | 241° |
| 2026-05-06 20:48 | 36.45228 | 103.41269 | 7436 ft | 133 kts | 227° |
| 2026-05-06 20:48 | 36.44503 | 103.40653 | 7489 ft | 120 kts | 207° |
| 2026-05-06 20:48 | 36.43747 | 103.40241 | 7507 ft | 119 kts | 198° |
| 2026-05-06 20:48 | 36.42920 | 103.40002 | 7390 ft | 130 kts | 187° |
| 2026-05-06 20:49 | 36.41982 | 103.39837 | 7094 ft | 139 kts | 186° |
| 2026-05-06 20:49 | 36.40998 | 103.39709 | 6761 ft | 142 kts | 185° |
| 2026-05-06 20:49 | 36.40041 | 103.39602 | 6499 ft | 137 kts | 184° |
| 2026-05-06 20:49 | 36.39131 | 103.39536 | 6346 ft | 123 kts | 180° |
| 2026-05-06 20:50 | 36.38329 | 103.39550 | 6301 ft | 108 kts | 176° |
| 2026-05-06 20:50 | 36.37613 | 103.39611 | 6268 ft | 100 kts | 173° |
| 2026-05-06 20:50 | 36.36925 | 103.39697 | 6218 ft | 99 kts | 171° |
| 2026-05-06 20:50 | 36.36239 | 103.39805 | 6156 ft | 99 kts | 170° |
| 2026-05-06 20:51 | 36.35567 | 103.39917 | 6137 ft | 95 kts | 170° |
| 2026-05-06 20:51 | 36.34926 | 103.40061 | 6124 ft | 94 kts | 167° |
| 2026-05-06 20:51 | 36.34299 | 103.40195 | 6136 ft | 89 kts | 167° |
| 2026-05-06 20:51 | 36.33699 | 103.40341 | 6126 ft | 88 kts | 166° |
| 2026-05-06 20:52 | 36.33104 | 103.40504 | 6116 ft | 89 kts | 165° |
| 2026-05-06 20:52 | 36.32510 | 103.40674 | 6138 ft | 86 kts | 165° |
| 2026-05-06 20:52 | 36.31920 | 103.40829 | 6145 ft | 86 kts | 166° |
| 2026-05-06 20:52 | 36.31330 | 103.40967 | 6138 ft | 87 kts | 169° |
| 2026-05-06 20:53 | 36.30723 | 103.41073 | 6140 ft | 87 kts | 171° |
| 2026-05-06 20:53 | 36.30128 | 103.41193 | 6136 ft | 87 kts | 167° |
| 2026-05-06 20:53 | 36.29541 | 103.41331 | 6110 ft | 89 kts | 168° |
| 2026-05-06 20:53 | 36.28920 | 103.41401 | 6104 ft | 88 kts | 173° |
| 2026-05-06 20:54 | 36.28306 | 103.41482 | 6090 ft | 89 kts | 175° |
| 2026-05-06 20:54 | 36.27691 | 103.41518 | 6100 ft | 89 kts | 175° |
| 2026-05-06 20:54 | 36.27047 | 103.41513 | 6126 ft | 97 kts | 182° |
| 2026-05-06 20:54 | 36.26361 | 103.41563 | 6188 ft | 102 kts | 169° |
| 2026-05-06 20:55 | 36.25648 | 103.41720 | 6246 ft | 108 kts | 167° |
| 2026-05-06 20:55 | 36.24905 | 103.41928 | 6272 ft | 113 kts | 164° |
| 2026-05-06 20:55 | 36.24128 | 103.42153 | 6337 ft | 113 kts | 166° |
| 2026-05-06 20:55 | 36.23373 | 103.42363 | 6464 ft | 109 kts | 165° |
| 2026-05-06 20:56 | 36.22615 | 103.42588 | 6488 ft | 114 kts | 165° |
| 2026-05-06 20:56 | 36.21848 | 103.42765 | 6578 ft | 109 kts | 169° |
| 2026-05-06 20:56 | 36.21081 | 103.42924 | 6600 ft | 113 kts | 167° |
| 2026-05-06 20:56 | 36.20295 | 103.43108 | 6594 ft | 118 kts | 170° |
| 2026-05-06 20:57 | 36.19509 | 103.43287 | 6711 ft | 115 kts | 165° |
| 2026-05-06 20:57 | 36.18739 | 103.43633 | 6468 ft | 119 kts | 146° |
| 2026-05-06 20:57 | 36.17925 | 103.44062 | 5719 ft | 137 kts | 181° |
| 2026-05-06 20:57 | 36.17028 | 103.43766 | 5314 ft | 124 kts | 200° |
| 2026-05-06 20:58 | 36.16308 | 103.43449 | 5316 ft | 103 kts | 199° |
| 2026-05-06 20:58 | 36.15619 | 103.43120 | 5397 ft | 108 kts | 204° |
| 2026-05-06 20:58 | 36.14957 | 103.42612 | 5393 ft | 119 kts | 217° |
| 2026-05-06 20:58 | 36.14351 | 103.41858 | 5370 ft | 125 kts | 232° |
| 2026-05-06 20:59 | 36.13834 | 103.40989 | 5362 ft | 127 kts | 231° |
| 2026-05-06 20:59 | 36.13265 | 103.40146 | 5360 ft | 126 kts | 226° |
| 2026-05-06 20:59 | 36.13010 | 103.39238 | 5515 ft | 110 kts | 249° |
| 2026-05-06 20:59 | 36.12660 | 103.38325 | 5472 ft | 122 kts | 243° |
| 2026-05-06 21:00 | 36.12276 | 103.37381 | 5500 ft | 123 kts | 251° |
| 2026-05-06 21:00 | 36.12272 | 103.36345 | 5565 ft | 122 kts | 287° |
| 2026-05-06 21:00 | 36.12651 | 103.35394 | 5567 ft | 125 kts | 304° |
| 2026-05-06 21:00 | 36.13167 | 103.34537 | 5596 ft | 125 kts | 309° |
| 2026-05-06 21:01 | 36.13673 | 103.33659 | 5597 ft | 127 kts | 300° |
| 2026-05-06 21:01 | 36.14029 | 103.32649 | 5574 ft | 129 kts | 292° |
| 2026-05-06 21:01 | 36.14336 | 103.31612 | 5597 ft | 128 kts | 289° |
| 2026-05-06 21:01 | 36.14562 | 103.30563 | 5673 ft | 123 kts | 284° |
| 2026-05-06 21:02 | 36.14787 | 103.29560 | 5741 ft | 122 kts | 289° |
| 2026-05-06 21:02 | 36.15072 | 103.28556 | 5757 ft | 125 kts | 290° |
| 2026-05-06 21:02 | 36.15363 | 103.27543 | 5805 ft | 124 kts | 290° |
| 2026-05-06 21:02 | 36.15663 | 103.26529 | 5810 ft | 127 kts | 291° |
| 2026-05-06 21:03 | 36.15959 | 103.25503 | 5844 ft | 125 kts | 290° |
| 2026-05-06 21:03 | 36.16237 | 103.24532 | 5975 ft | 119 kts | 290° |
| 2026-05-06 21:03 | 36.16527 | 103.23558 | 6007 ft | 122 kts | 292° |
| 2026-05-06 21:03 | 36.16828 | 103.22588 | 6076 ft | 120 kts | 292° |
| 2026-05-06 21:04 | 36.17157 | 103.21613 | 6070 ft | 125 kts | 294° |
| 2026-05-06 21:04 | 36.17517 | 103.20627 | 6064 ft | 126 kts | 295° |
| 2026-05-06 21:04 | 36.17881 | 103.19627 | 6041 ft | 128 kts | 294° |
| 2026-05-06 21:04 | 36.18215 | 103.18611 | 6054 ft | 127 kts | 292° |
| 2026-05-06 21:05 | 36.18538 | 103.17600 | 6067 ft | 127 kts | 293° |
| 2026-05-06 21:05 | 36.18864 | 103.16578 | 6070 ft | 128 kts | 291° |
| 2026-05-06 21:05 | 36.19153 | 103.15546 | 6114 ft | 126 kts | 288° |
| 2026-05-06 21:05 | 36.19426 | 103.14505 | 6088 ft | 129 kts | 290° |
| 2026-05-06 21:06 | 36.19760 | 103.13471 | 6075 ft | 129 kts | 293° |
| 2026-05-06 21:06 | 36.20114 | 103.12440 | 6047 ft | 130 kts | 295° |
| 2026-05-06 21:06 | 36.20492 | 103.11440 | 6078 ft | 127 kts | 297° |
| 2026-05-06 21:06 | 36.20899 | 103.10464 | 6109 ft | 126 kts | 299° |
| 2026-05-06 21:07 | 36.21342 | 103.09526 | 6112 ft | 127 kts | 301° |
| 2026-05-06 21:07 | 36.21780 | 103.08570 | 6126 ft | 126 kts | 300° |
| 2026-05-06 21:07 | 36.22207 | 103.07633 | 6171 ft | 125 kts | 301° |
| 2026-05-06 21:07 | 36.22661 | 103.06705 | 6162 ft | 127 kts | 303° |
| 2026-05-06 21:08 | 36.23099 | 103.05762 | 6189 ft | 126 kts | 298° |
| 2026-05-06 21:08 | 36.23484 | 103.04795 | 6213 ft | 125 kts | 298° |
| 2026-05-06 21:08 | 36.23931 | 103.03856 | 6181 ft | 128 kts | 304° |
| 2026-05-06 21:08 | 36.24428 | 103.02948 | 6207 ft | 126 kts | 305° |
| 2026-05-06 21:09 | 36.24924 | 103.02046 | 6210 ft | 127 kts | 306° |
| 2026-05-06 21:09 | 36.25440 | 103.01152 | 6210 ft | 128 kts | 307° |
| 2026-05-06 21:09 | 36.25959 | 103.00269 | 6247 ft | 126 kts | 306° |
| 2026-05-06 21:09 | 36.26436 | 102.99382 | 6339 ft | 122 kts | 305° |
| 2026-05-06 21:10 | 36.26935 | 102.98515 | 6334 ft | 125 kts | 306° |
| 2026-05-06 21:10 | 36.27405 | 102.97636 | 6413 ft | 122 kts | 303° |
| 2026-05-06 21:10 | 36.27887 | 102.96734 | 6375 ft | 129 kts | 305° |
| 2026-05-06 21:10 | 36.28344 | 102.95771 | 6384 ft | 128 kts | 297° |
| 2026-05-06 21:11 | 36.28720 | 102.94769 | 6386 ft | 128 kts | 294° |
| 2026-05-06 21:11 | 36.29073 | 102.93757 | 6369 ft | 129 kts | 295° |
| 2026-05-06 21:11 | 36.29444 | 102.92743 | 6363 ft | 129 kts | 295° |
| 2026-05-06 21:11 | 36.29794 | 102.91726 | 6397 ft | 128 kts | 293° |
| 2026-05-06 21:12 | 36.30150 | 102.90719 | 6423 ft | 127 kts | 294° |
| 2026-05-06 21:12 | 36.30511 | 102.89714 | 6460 ft | 127 kts | 293° |
| 2026-05-06 21:12 | 36.30854 | 102.88722 | 6523 ft | 125 kts | 292° |
| 2026-05-06 21:12 | 36.31177 | 102.87726 | 6549 ft | 125 kts | 291° |
| 2026-05-06 21:13 | 36.31500 | 102.86739 | 6623 ft | 122 kts | 291° |
| 2026-05-06 21:13 | 36.31798 | 102.85767 | 6701 ft | 120 kts | 292° |
| 2026-05-06 21:13 | 36.32008 | 102.85109 | 6732 ft | 122 kts | 292° |
| 2026-05-06 21:13 | 36.32325 | 102.84122 | 6787 ft | 124 kts | 291° |
| 2026-05-06 21:14 | 36.32612 | 102.83137 | 6887 ft | 120 kts | 290° |
| 2026-05-06 21:14 | 36.32891 | 102.82159 | 6936 ft | 121 kts | 288° |
| 2026-05-06 21:14 | 36.33128 | 102.81120 | 6899 ft | 128 kts | 282° |
| 2026-05-06 21:14 | 36.33309 | 102.80067 | 6994 ft | 123 kts | 283° |
| 2026-05-06 21:15 | 36.33505 | 102.79045 | 7016 ft | 124 kts | 282° |
| 2026-05-06 21:15 | 36.33716 | 102.78023 | 7070 ft | 122 kts | 289° |
| 2026-05-06 21:15 | 36.34070 | 102.77019 | 7036 ft | 127 kts | 297° |
| 2026-05-06 21:15 | 36.34466 | 102.76056 | 7098 ft | 124 kts | 297° |
| 2026-05-06 21:16 | 36.34878 | 102.75116 | 7123 ft | 125 kts | 300° |
| 2026-05-06 21:16 | 36.35310 | 102.74158 | 7056 ft | 131 kts | 296° |
| 2026-05-06 21:16 | 36.35666 | 102.73158 | 7129 ft | 123 kts | 290° |
| 2026-05-06 21:16 | 36.35922 | 102.72203 | 7295 ft | 115 kts | 287° |
| 2026-05-06 21:17 | 36.36106 | 102.71245 | 7387 ft | 115 kts | 281° |
| 2026-05-06 21:17 | 36.36390 | 102.70306 | 7390 ft | 122 kts | 299° |
| 2026-05-06 21:17 | 36.36987 | 102.69606 | 7416 ft | 121 kts | 338° |
| 2026-05-06 21:17 | 36.37845 | 102.69467 | 7316 ft | 127 kts | 357° |
| 2026-05-06 21:18 | 36.38713 | 102.69237 | 7249 ft | 132 kts | 333° |
| 2026-05-06 21:18 | 36.39419 | 102.68491 | 7157 ft | 135 kts | 313° |
| 2026-05-06 21:18 | 36.40051 | 102.67608 | 7033 ft | 139 kts | 309° |
| 2026-05-06 21:18 | 36.40539 | 102.66572 | 6907 ft | 141 kts | 290° |
| 2026-05-06 21:19 | 36.40850 | 102.65417 | 6757 ft | 142 kts | 289° |
| 2026-05-06 21:19 | 36.41176 | 102.64280 | 6719 ft | 134 kts | 289° |
| 2026-05-06 21:19 | 36.41497 | 102.63228 | 6776 ft | 127 kts | 290° |
| 2026-05-06 21:19 | 36.41800 | 102.62199 | 6777 ft | 127 kts | 290° |
| 2026-05-06 21:20 | 36.42103 | 102.61186 | 6816 ft | 124 kts | 290° |
| 2026-05-06 21:20 | 36.42398 | 102.60167 | 6800 ft | 127 kts | 290° |
| 2026-05-06 21:20 | 36.42698 | 102.59148 | 6831 ft | 125 kts | 290° |
| 2026-05-06 21:20 | 36.42996 | 102.58139 | 6857 ft | 124 kts | 291° |
| 2026-05-06 21:21 | 36.43268 | 102.57135 | 6905 ft | 123 kts | 287° |
| 2026-05-06 21:21 | 36.43528 | 102.56103 | 6862 ft | 125 kts | 288° |
| 2026-05-06 21:21 | 36.43785 | 102.55095 | 6920 ft | 119 kts | 287° |
| 2026-05-06 21:21 | 36.44031 | 102.54117 | 6926 ft | 119 kts | 287° |
| 2026-05-06 21:22 | 36.44275 | 102.53155 | 6975 ft | 116 kts | 288° |
| 2026-05-06 21:22 | 36.44512 | 102.52212 | 7013 ft | 116 kts | 287° |
| 2026-05-06 21:22 | 36.44748 | 102.51249 | 7029 ft | 117 kts | 285° |
| 2026-05-06 21:22 | 36.44947 | 102.50274 | 7083 ft | 114 kts | 283° |
| 2026-05-06 21:23 | 36.45147 | 102.49311 | 7091 ft | 117 kts | 287° |
| 2026-05-06 21:23 | 36.45388 | 102.48348 | 7104 ft | 117 kts | 287° |
| 2026-05-06 21:23 | 36.45568 | 102.47376 | 7193 ft | 108 kts | 265° |
| 2026-05-06 21:23 | 36.45104 | 102.46952 | 7415 ft | 91 kts | 153° |
| 2026-05-06 21:24 | 36.44771 | 102.47650 | 7405 ft | 104 kts | 109° |
| 2026-05-06 21:24 | 36.44517 | 102.48523 | 7467 ft | 108 kts | 109° |
| 2026-05-06 21:24 | 36.44316 | 102.49375 | 7649 ft | 101 kts | 104° |
| 2026-05-06 21:24 | 36.44148 | 102.50279 | 7666 ft | 110 kts | 92° |
| 2026-05-06 21:25 | 36.44554 | 102.50706 | 7974 ft | 90 kts | 339° |
| 2026-05-06 21:25 | 36.44978 | 102.49942 | 7712 ft | 124 kts | 292° |
| 2026-05-06 21:25 | 36.45323 | 102.48876 | 7544 ft | 135 kts | 291° |
| 2026-05-06 21:25 | 36.45649 | 102.47794 | 7532 ft | 131 kts | 290° |
| 2026-05-06 21:26 | 36.45955 | 102.46754 | 7585 ft | 125 kts | 290° |
| 2026-05-06 21:26 | 36.46254 | 102.45743 | 7598 ft | 125 kts | 290° |
| 2026-05-06 21:26 | 36.46532 | 102.44729 | 7587 ft | 126 kts | 290° |
| 2026-05-06 21:26 | 36.46866 | 102.43629 | 7252 ft | 145 kts | 291° |
| 2026-05-06 21:27 | 36.47257 | 102.42449 | 6978 ft | 150 kts | 292° |
| 2026-05-06 21:27 | 36.47600 | 102.41267 | 6873 ft | 142 kts | 279° |
| 2026-05-06 21:27 | 36.47587 | 102.40056 | 6756 ft | 139 kts | 266° |
| 2026-05-06 21:27 | 36.47683 | 102.38893 | 6747 ft | 131 kts | 277° |
| 2026-05-06 21:28 | 36.47831 | 102.37797 | 6690 ft | 128 kts | 307° |
| 2026-05-06 21:28 | 36.48367 | 102.37062 | 6856 ft | 113 kts | 284° |
| 2026-05-06 21:28 | 36.48382 | 102.36093 | 6876 ft | 117 kts | 271° |
| 2026-05-06 21:28 | 36.48485 | 102.35070 | 6907 ft | 118 kts | 278° |
| 2026-05-06 21:29 | 36.48546 | 102.34063 | 6970 ft | 117 kts | 271° |
| 2026-05-06 21:29 | 36.48557 | 102.33051 | 6995 ft | 119 kts | 269° |
| 2026-05-06 21:29 | 36.48546 | 102.32011 | 7012 ft | 120 kts | 269° |
| 2026-05-06 21:29 | 36.48494 | 102.30987 | 7107 ft | 117 kts | 264° |
| 2026-05-06 21:30 | 36.48415 | 102.29989 | 7181 ft | 116 kts | 264° |
| 2026-05-06 21:30 | 36.48365 | 102.28992 | 7243 ft | 117 kts | 268° |
| 2026-05-06 21:30 | 36.48320 | 102.27996 | 7290 ft | 118 kts | 263° |
| 2026-05-06 21:30 | 36.48168 | 102.26990 | 7320 ft | 119 kts | 259° |
| 2026-05-06 21:31 | 36.48056 | 102.26005 | 7490 ft | 108 kts | 263° |
| 2026-05-06 21:31 | 36.47983 | 102.25102 | 7629 ft | 104 kts | 266° |
| 2026-05-06 21:31 | 36.47929 | 102.24193 | 7694 ft | 108 kts | 266° |
| 2026-05-06 21:31 | 36.47917 | 102.23233 | 7695 ft | 115 kts | 270° |
| 2026-05-06 21:32 | 36.47953 | 102.22236 | 7736 ft | 117 kts | 279° |
| 2026-05-06 21:32 | 36.48378 | 102.20284 | 7857 ft | 116 kts | 288° |
| 2026-05-06 21:32 | 36.48627 | 102.19327 | 7900 ft | 118 kts | 288° |
| 2026-05-06 21:33 | 36.48885 | 102.18344 | 7904 ft | 120 kts | 288° |
| 2026-05-06 21:33 | 36.49138 | 102.17361 | 7940 ft | 119 kts | 287° |
| 2026-05-06 21:33 | 36.49365 | 102.16379 | 8011 ft | 117 kts | 287° |
| 2026-05-06 21:33 | 36.49590 | 102.15403 | 8043 ft | 118 kts | 287° |
| 2026-05-06 21:34 | 36.49828 | 102.14437 | 8106 ft | 116 kts | 286° |
| 2026-05-06 21:34 | 36.50050 | 102.13467 | 8144 ft | 117 kts | 290° |
| 2026-05-06 21:34 | 36.50377 | 102.12517 | 8130 ft | 122 kts | 295° |
| 2026-05-06 21:34 | 36.50705 | 102.11530 | 8095 ft | 124 kts | 290° |
| 2026-05-06 21:35 | 36.51009 | 102.10511 | 8026 ft | 128 kts | 291° |
| 2026-05-06 21:35 | 36.51327 | 102.09471 | 7909 ft | 131 kts | 290° |
| 2026-05-06 21:35 | 36.51633 | 102.08384 | 7703 ft | 136 kts | 289° |
| 2026-05-06 21:35 | 36.51937 | 102.07312 | 7468 ft | 121 kts | 289° |
| 2026-05-06 21:36 | 36.52183 | 102.06415 | 7318 ft | 99 kts | 289° |
| 2026-05-06 21:36 | 36.52380 | 102.05684 | 7198 ft | 81 kts | 290° |
| 2026-05-06 21:36 | 36.52537 | 102.05107 | 7135 ft | 60 kts | 290° |
| 2026-05-06 21:36 | 36.52661 | 102.04680 | 7131 ft | 46 kts | 289° |
| 2026-05-06 21:37 | 36.52725 | 102.04366 | 7131 ft | 22 kts | 271° |
| 2026-05-06 21:37 | 36.52668 | 102.04301 | 7131 ft | 9 kts | 204° |
| 2026-05-06 21:37 | 36.52643 | 102.04291 | 7131 ft | 0 kts | 135° |
| 2026-05-06 21:37 | 36.52640 | 102.04297 | 7131 ft | 0 kts | 108° |